createdAt,value
2023-03-18T00:00:01.893Z,2.42
2023-03-18T00:02:28.946Z,2.33
2023-03-18T00:04:55.491Z,2.28
2023-03-18T00:07:22.529Z,2.23
2023-03-18T00:09:49.377Z,2.22
2023-03-18T00:12:15.886Z,2.18
2023-03-18T00:14:42.416Z,2.13
2023-03-18T00:17:09.609Z,2.15
2023-03-18T00:19:36.112Z,2.13
2023-03-18T00:22:02.643Z,2.20
2023-03-18T00:24:31.472Z,2.21
2023-03-18T00:26:58.240Z,2.31
2023-03-18T00:29:25.328Z,2.33
2023-03-18T00:31:51.964Z,2.44
2023-03-18T00:34:18.698Z,2.51
2023-03-18T00:36:45.797Z,2.59
2023-03-18T00:39:13.322Z,2.55
2023-03-18T00:41:39.884Z,2.52
2023-03-18T00:44:07.620Z,2.46
2023-03-18T00:46:36.424Z,2.43
2023-03-18T00:49:05.842Z,2.51
2023-03-18T00:51:37.392Z,2.50
2023-03-18T00:54:07.326Z,2.49
2023-03-18T00:56:36.822Z,2.44
2023-03-18T00:59:04.791Z,2.40
2023-03-18T01:01:31.519Z,2.27
2023-03-18T01:03:58.632Z,1.95
2023-03-18T01:06:30.622Z,1.81
2023-03-18T01:08:58.684Z,1.72
2023-03-18T01:11:26.063Z,1.65
2023-03-18T01:13:53.177Z,1.67
2023-03-18T01:16:21.143Z,1.53
2023-03-18T01:18:48.107Z,1.56
2023-03-18T01:21:15.435Z,1.57
2023-03-18T01:23:44.769Z,1.50
2023-03-18T01:26:11.447Z,1.44
2023-03-18T01:28:38.297Z,1.46
2023-03-18T01:31:04.875Z,1.39
2023-03-18T01:33:31.817Z,1.31
2023-03-18T01:36:00.436Z,1.31
2023-03-18T01:38:31.339Z,1.32
2023-03-18T01:41:00.104Z,1.35
2023-03-18T01:43:35.235Z,1.34
2023-03-18T01:46:23.539Z,1.33
2023-03-18T01:48:52.113Z,1.30
2023-03-18T01:51:20.361Z,1.27
2023-03-18T01:53:49.894Z,1.19
2023-03-18T01:56:18.736Z,1.24
2023-03-18T01:58:47.890Z,1.20
2023-03-18T02:01:22.628Z,1.14
2023-03-18T02:03:51.145Z,1.17
2023-03-18T02:06:18.428Z,1.14
2023-03-18T02:08:45.371Z,1.13
2023-03-18T02:11:12.632Z,1.21
2023-03-18T02:13:42.660Z,1.31
2023-03-18T02:16:15.784Z,1.35
2023-03-18T02:18:49.054Z,1.58
2023-03-18T02:21:53.028Z,1.82
2023-03-18T02:24:32.546Z,2.06
2023-03-18T02:27:12.312Z,2.34
2023-03-18T02:29:41.387Z,2.39
2023-03-18T02:32:09.133Z,2.59
2023-03-18T02:34:37.953Z,2.80
2023-03-18T02:37:04.508Z,2.76
2023-03-18T02:39:31.680Z,2.75
2023-03-18T02:41:58.257Z,2.74
2023-03-18T02:44:25.675Z,2.76
2023-03-18T02:46:59.516Z,2.73
2023-03-18T02:49:27.732Z,2.75
2023-03-18T02:51:55.376Z,2.76
2023-03-18T02:54:27.940Z,2.72
2023-03-18T02:56:55.566Z,2.67
2023-03-18T02:59:23.033Z,2.40
2023-03-18T03:01:52.326Z,2.44
2023-03-18T03:04:20.908Z,2.36
2023-03-18T03:06:47.511Z,2.31
2023-03-18T03:09:16.264Z,2.22
2023-03-18T03:11:45.175Z,2.12
2023-03-18T03:14:12.974Z,2.10
2023-03-18T03:16:39.954Z,2.12
2023-03-18T03:19:07.067Z,2.10
2023-03-18T03:21:35.965Z,2.09
2023-03-18T03:24:07.697Z,2.14
2023-03-18T03:26:35.057Z,2.17
2023-03-18T03:29:02.295Z,2.25
2023-03-18T03:31:29.033Z,2.35
2023-03-18T03:33:55.644Z,2.43
2023-03-18T03:36:23.442Z,2.53
2023-03-18T03:38:50.620Z,2.61
2023-03-18T03:41:17.385Z,2.69
2023-03-18T03:43:44.886Z,2.69
2023-03-18T03:46:11.931Z,2.79
2023-03-18T03:48:39.632Z,2.90
2023-03-18T03:51:07.262Z,2.91
2023-03-18T03:53:34.167Z,2.97
2023-03-18T03:56:01.071Z,3.04
2023-03-18T03:58:27.907Z,3.08
2023-03-18T04:00:54.468Z,3.11
2023-03-18T04:03:20.995Z,3.21
2023-03-18T04:05:47.867Z,3.21
2023-03-18T04:08:14.411Z,3.23
2023-03-18T04:10:40.936Z,3.27
2023-03-18T04:13:07.559Z,3.34
2023-03-18T04:15:34.392Z,3.38
2023-03-18T04:18:06.723Z,3.43
2023-03-18T04:20:35.708Z,3.49
2023-03-18T04:23:02.797Z,3.46
2023-03-18T04:25:30.186Z,3.50
2023-03-18T04:27:57.140Z,3.51
2023-03-18T04:30:25.648Z,3.52
2023-03-18T04:32:52.965Z,3.54
2023-03-18T04:35:19.854Z,3.52
2023-03-18T04:37:46.385Z,3.48
2023-03-18T04:40:13.096Z,3.52
2023-03-18T04:42:40.577Z,3.47
2023-03-18T04:45:07.830Z,3.45
2023-03-18T04:47:35.899Z,3.45
2023-03-18T04:50:04.681Z,3.47
2023-03-18T04:52:31.649Z,3.43
2023-03-18T04:54:58.209Z,3.44
2023-03-18T04:57:25.242Z,3.44
2023-03-18T04:59:52.207Z,3.45
2023-03-18T05:02:19.571Z,3.47
2023-03-18T05:04:46.370Z,3.52
2023-03-18T05:07:15.582Z,3.52
2023-03-18T05:09:42.532Z,3.50
2023-03-18T05:12:15.975Z,3.48
2023-03-18T05:14:43.870Z,3.49
2023-03-18T05:17:15.826Z,3.51
2023-03-18T05:19:44.754Z,3.55
2023-03-18T05:22:11.831Z,3.59
2023-03-18T05:24:39.717Z,3.63
2023-03-18T05:27:07.128Z,3.66
2023-03-18T05:29:33.870Z,3.70
2023-03-18T05:32:00.463Z,3.82
2023-03-18T05:34:27.578Z,3.91
2023-03-18T05:36:54.088Z,3.97
2023-03-18T05:39:20.592Z,3.98
2023-03-18T05:41:47.182Z,4.03
2023-03-18T05:44:13.708Z,4.09
2023-03-18T05:46:40.201Z,4.12
2023-03-18T05:49:06.727Z,4.14
2023-03-18T05:51:33.208Z,4.21
2023-03-18T05:53:59.814Z,4.27
2023-03-18T05:56:26.422Z,4.35
2023-03-18T05:58:52.904Z,4.45
2023-03-18T06:01:20.242Z,4.51
2023-03-18T06:03:46.814Z,4.55
2023-03-18T06:06:13.366Z,4.61
2023-03-18T06:08:39.891Z,4.65
2023-03-18T06:11:06.733Z,4.72
2023-03-18T06:13:35.160Z,4.79
2023-03-18T06:16:01.720Z,4.87
2023-03-18T06:18:28.859Z,4.94
2023-03-18T06:20:56.287Z,5.05
2023-03-18T06:23:23.503Z,5.13
2023-03-18T06:25:50.349Z,5.24
2023-03-18T06:28:16.875Z,5.34
2023-03-18T06:30:43.440Z,5.44
2023-03-18T06:33:10.196Z,5.58
2023-03-18T06:35:36.913Z,5.70
2023-03-18T06:38:03.576Z,5.98
2023-03-18T06:40:30.150Z,6.23
2023-03-18T06:42:56.698Z,6.55
2023-03-18T06:45:23.483Z,6.88
2023-03-18T06:47:50.014Z,7.17
2023-03-18T06:50:16.548Z,7.44
2023-03-18T06:52:43.628Z,7.58
2023-03-18T06:55:10.877Z,7.67
2023-03-18T06:57:37.405Z,7.90
2023-03-18T07:00:05.239Z,8.09
2023-03-18T07:02:32.033Z,8.13
2023-03-18T07:05:00.250Z,8.12
2023-03-18T07:07:26.894Z,8.06
2023-03-18T07:09:53.544Z,8.40
2023-03-18T07:12:20.022Z,8.54
2023-03-18T07:14:47.138Z,8.64
2023-03-18T07:17:14.554Z,8.59
2023-03-18T07:19:41.954Z,8.82
2023-03-18T07:22:08.760Z,8.93
2023-03-18T07:24:36.102Z,8.99
2023-03-18T07:27:02.834Z,9.15
2023-03-18T07:29:29.344Z,9.19
2023-03-18T07:31:55.916Z,9.19
2023-03-18T07:34:22.783Z,9.11
2023-03-18T07:36:49.417Z,9.28
2023-03-18T07:39:16.079Z,9.75
2023-03-18T07:41:42.971Z,9.68
2023-03-18T07:44:09.615Z,9.85
2023-03-18T07:46:36.392Z,9.98
2023-03-18T07:49:03.158Z,10.13
2023-03-18T07:51:31.953Z,10.06
2023-03-18T07:53:58.940Z,10.22
2023-03-18T07:56:27.223Z,10.22
2023-03-18T07:58:53.733Z,10.31
2023-03-18T08:01:20.612Z,10.69
2023-03-18T08:03:47.766Z,10.34
2023-03-18T08:06:15.799Z,10.68
2023-03-18T08:08:42.906Z,10.81
2023-03-18T08:11:09.979Z,10.36
2023-03-18T08:13:37.751Z,10.68
2023-03-18T08:16:04.899Z,11.08
2023-03-18T08:18:31.864Z,11.23
2023-03-18T08:20:58.502Z,11.11
2023-03-18T08:23:25.562Z,10.90
2023-03-18T08:25:52.716Z,10.94
2023-03-18T08:28:19.682Z,11.09
2023-03-18T08:30:46.974Z,11.43
2023-03-18T08:33:13.610Z,11.32
2023-03-18T08:35:44.116Z,11.34
2023-03-18T08:38:10.704Z,11.39
2023-03-18T08:40:37.269Z,11.34
2023-03-18T08:43:03.778Z,11.38
2023-03-18T08:45:30.697Z,10.51
2023-03-18T08:47:57.384Z,10.60
2023-03-18T08:50:28.511Z,11.16
2023-03-18T08:53:00.617Z,10.95
2023-03-18T08:55:34.524Z,11.40
2023-03-18T08:58:01.737Z,11.66
2023-03-18T09:00:28.422Z,11.56
2023-03-18T09:02:55.049Z,11.82
2023-03-18T09:05:22.312Z,12.16
2023-03-18T09:07:48.862Z,12.77
2023-03-18T09:10:17.370Z,13.41
2023-03-18T09:12:45.544Z,13.74
2023-03-18T09:15:17.400Z,13.08
2023-03-18T09:18:00.022Z,13.18
2023-03-18T09:20:32.829Z,13.07
2023-03-18T09:23:00.037Z,13.49
2023-03-18T09:25:27.136Z,12.86
2023-03-18T09:27:53.842Z,13.45
2023-03-18T09:30:20.933Z,14.06
2023-03-18T09:32:47.507Z,13.96
2023-03-18T09:35:14.378Z,14.09
2023-03-18T09:37:40.896Z,14.15
2023-03-18T09:40:08.687Z,14.01
2023-03-18T09:42:52.016Z,14.04
2023-03-18T09:45:28.481Z,14.07
2023-03-18T09:48:20.072Z,13.85
2023-03-18T09:51:06.132Z,14.05
2023-03-18T09:53:44.064Z,14.73
2023-03-18T09:56:21.093Z,14.31
2023-03-18T09:58:58.434Z,14.60
2023-03-18T10:01:28.436Z,14.25
2023-03-18T10:04:01.743Z,13.83
2023-03-18T10:06:28.963Z,14.18
2023-03-18T10:09:08.041Z,14.67
2023-03-18T10:11:49.833Z,15.68
2023-03-18T10:14:49.812Z,14.65
2023-03-18T10:17:37.551Z,14.64
2023-03-18T10:20:18.397Z,14.45
2023-03-18T10:22:57.686Z,14.88
2023-03-18T10:25:38.766Z,14.95
2023-03-18T10:28:23.473Z,15.20
2023-03-18T10:31:22.535Z,15.35
2023-03-18T10:34:02.176Z,15.56
2023-03-18T10:36:39.523Z,16.50
2023-03-18T10:39:16.434Z,16.23
2023-03-18T10:41:47.426Z,15.64
2023-03-18T10:44:28.686Z,15.79
2023-03-18T10:47:19.140Z,15.58
2023-03-18T10:50:02.211Z,15.18
2023-03-18T10:52:38.929Z,15.27
2023-03-18T10:55:16.966Z,14.95
2023-03-18T10:57:43.738Z,15.33
2023-03-18T11:00:35.782Z,15.65
2023-03-18T11:03:05.748Z,16.44
2023-03-18T11:05:35.926Z,17.08
2023-03-18T11:08:06.588Z,17.16
2023-03-18T11:10:37.116Z,17.37
2023-03-18T11:13:04.306Z,16.67
2023-03-18T11:15:38.449Z,15.90
2023-03-18T11:18:05.925Z,16.36
2023-03-18T11:20:44.296Z,15.92
2023-03-18T11:23:58.548Z,16.03
2023-03-18T11:26:27.825Z,15.58
2023-03-18T11:28:56.761Z,15.32
2023-03-18T11:31:23.495Z,14.95
2023-03-18T11:33:49.987Z,15.41
2023-03-18T11:36:24.198Z,15.60
2023-03-18T11:39:06.280Z,15.45
2023-03-18T11:41:32.807Z,15.06
2023-03-18T11:44:02.080Z,15.08
2023-03-18T11:47:14.940Z,15.52
2023-03-18T11:49:43.975Z,15.38
2023-03-18T11:52:39.597Z,15.90
2023-03-18T11:55:15.820Z,16.16
2023-03-18T11:58:10.543Z,16.29
2023-03-18T12:00:50.454Z,16.58
2023-03-18T12:03:31.957Z,17.24
2023-03-18T12:06:10.641Z,16.81
2023-03-18T12:08:48.033Z,16.23
2023-03-18T12:11:36.028Z,15.18
2023-03-18T12:14:21.362Z,14.99
2023-03-18T12:17:20.754Z,14.43
2023-03-18T12:20:05.673Z,14.20
2023-03-18T12:22:41.341Z,14.44
2023-03-18T12:25:18.910Z,14.58
2023-03-18T12:28:02.888Z,14.35
2023-03-18T12:30:29.350Z,14.26
2023-03-18T12:33:56.333Z,14.04
2023-03-18T12:36:36.108Z,13.81
2023-03-18T12:39:13.020Z,13.86
2023-03-18T12:41:57.750Z,14.13
2023-03-18T12:44:46.815Z,13.82
2023-03-18T12:47:15.931Z,13.64
2023-03-18T12:49:50.412Z,13.79
2023-03-18T12:52:44.727Z,13.92
2023-03-18T12:55:21.801Z,14.08
2023-03-18T12:58:03.298Z,14.12
2023-03-18T13:00:34.877Z,14.20
2023-03-18T13:03:21.913Z,14.23
2023-03-18T13:05:53.489Z,14.06
2023-03-18T13:08:28.994Z,14.12
2023-03-18T13:11:27.034Z,14.12
2023-03-18T13:14:00.462Z,14.13
2023-03-18T13:16:28.596Z,14.11
2023-03-18T13:18:57.728Z,14.04
2023-03-18T13:21:29.820Z,13.99
2023-03-18T13:24:30.180Z,14.08
2023-03-18T13:27:23.523Z,14.38
2023-03-18T13:30:19.495Z,14.45
2023-03-18T13:33:19.109Z,14.24
2023-03-18T13:36:08.765Z,14.20
2023-03-18T13:39:00.706Z,14.36
2023-03-18T13:41:36.315Z,14.47
2023-03-18T13:44:16.358Z,14.16
2023-03-18T13:46:54.372Z,14.03
2023-03-18T13:49:24.417Z,14.17
2023-03-18T13:51:58.511Z,14.27
2023-03-18T13:54:33.139Z,14.54
2023-03-18T13:57:32.485Z,14.79
2023-03-18T14:00:27.057Z,14.81
2023-03-18T14:03:24.109Z,14.71
2023-03-18T14:06:11.590Z,14.51
2023-03-18T14:08:38.287Z,14.62
2023-03-18T14:11:16.894Z,14.40
2023-03-18T14:13:45.023Z,14.50
2023-03-18T14:16:14.913Z,14.25
2023-03-18T14:18:41.827Z,14.40
2023-03-18T14:21:28.318Z,14.30
2023-03-18T14:24:23.711Z,14.33
2023-03-18T14:27:05.107Z,14.43
2023-03-18T14:29:37.396Z,14.42
2023-03-18T14:32:36.446Z,14.36
2023-03-18T14:35:18.144Z,14.44
2023-03-18T14:38:22.319Z,14.48
2023-03-18T14:40:53.787Z,14.57
2023-03-18T14:43:33.894Z,14.43
2023-03-18T14:46:06.021Z,14.28
2023-03-18T14:48:34.603Z,14.33
2023-03-18T14:51:11.356Z,14.39
2023-03-18T14:53:41.800Z,14.36
2023-03-18T14:56:23.203Z,14.21
2023-03-18T14:58:53.712Z,14.02
2023-03-18T15:01:24.977Z,14.02
2023-03-18T15:03:53.066Z,14.04
2023-03-18T15:06:23.209Z,14.03
2023-03-18T15:09:06.577Z,14.07
2023-03-18T15:11:41.318Z,13.99
2023-03-18T15:14:30.149Z,13.94
2023-03-18T15:17:01.436Z,13.84
2023-03-18T15:19:29.087Z,13.81
2023-03-18T15:21:59.017Z,13.77
2023-03-18T15:24:26.977Z,13.76
2023-03-18T15:27:18.634Z,13.88
2023-03-18T15:29:52.936Z,13.83
2023-03-18T15:32:28.504Z,13.82
2023-03-18T15:35:11.236Z,13.85
2023-03-18T15:37:42.785Z,13.79
2023-03-18T15:40:30.945Z,13.66
2023-03-18T15:43:08.514Z,13.61
2023-03-18T15:45:35.991Z,13.55
2023-03-18T15:48:08.771Z,13.48
2023-03-18T15:50:36.895Z,13.42
2023-03-18T15:53:20.406Z,13.39
2023-03-18T15:55:50.814Z,13.33
2023-03-18T15:58:34.461Z,13.27
2023-03-18T16:01:01.566Z,13.21
2023-03-18T16:03:31.854Z,13.19
2023-03-18T16:05:58.407Z,13.11
2023-03-18T16:08:25.004Z,13.04
2023-03-18T16:11:02.018Z,12.96
2023-03-18T16:13:32.191Z,12.92
2023-03-18T16:15:59.057Z,12.86
2023-03-18T16:18:25.924Z,12.80
2023-03-18T16:20:53.950Z,12.78
2023-03-18T16:23:20.967Z,12.73
2023-03-18T16:25:51.809Z,12.65
2023-03-18T16:28:25.070Z,12.57
2023-03-18T16:30:53.551Z,12.54
2023-03-18T16:33:20.691Z,12.51
2023-03-18T16:35:57.126Z,12.54
2023-03-18T16:38:24.737Z,12.44
2023-03-18T16:40:53.853Z,12.35
2023-03-18T16:43:28.086Z,12.32
2023-03-18T16:46:00.753Z,12.24
2023-03-18T16:48:27.830Z,12.18
2023-03-18T16:50:56.782Z,12.13
2023-03-18T16:53:28.388Z,12.08
2023-03-18T16:55:58.425Z,11.99
2023-03-18T16:58:33.875Z,11.91
2023-03-18T17:01:00.580Z,11.82
2023-03-18T17:03:27.392Z,11.76
2023-03-18T17:05:53.955Z,11.69
2023-03-18T17:08:21.895Z,11.63
2023-03-18T17:10:51.564Z,11.53
2023-03-18T17:13:27.584Z,11.45
2023-03-18T17:15:54.330Z,11.37
2023-03-18T17:18:22.993Z,11.34
2023-03-18T17:20:50.453Z,11.30
2023-03-18T17:23:23.175Z,11.27
2023-03-18T17:25:53.288Z,11.24
2023-03-18T17:28:37.258Z,11.21
2023-03-18T17:31:04.767Z,11.19
2023-03-18T17:33:34.721Z,11.13
2023-03-18T17:36:02.195Z,11.02
2023-03-18T17:38:31.201Z,10.99
2023-03-18T17:40:59.564Z,11.05
2023-03-18T17:43:34.871Z,11.02
2023-03-18T17:46:03.146Z,10.93
2023-03-18T17:48:32.142Z,11.02
2023-03-18T17:51:01.340Z,10.97
2023-03-18T17:53:37.509Z,10.91
2023-03-18T17:56:05.349Z,10.85
2023-03-18T17:58:34.329Z,10.78
2023-03-18T18:01:05.842Z,10.70
2023-03-18T18:03:34.968Z,10.55
2023-03-18T18:06:02.202Z,10.37
2023-03-18T18:08:31.666Z,10.25
2023-03-18T18:11:20.837Z,10.18
2023-03-18T18:13:48.590Z,10.10
2023-03-18T18:16:15.190Z,10.10
2023-03-18T18:18:42.030Z,10.08
2023-03-18T18:21:27.243Z,10.00
2023-03-18T18:23:54.006Z,9.99
2023-03-18T18:26:22.149Z,10.00
2023-03-18T18:28:51.287Z,9.93
2023-03-18T18:31:19.822Z,9.84
2023-03-18T18:33:47.684Z,9.71
2023-03-18T18:36:14.411Z,9.61
2023-03-18T18:38:41.006Z,9.55
2023-03-18T18:41:08.512Z,9.60
2023-03-18T18:43:36.093Z,9.66
2023-03-18T18:46:02.816Z,9.68
2023-03-18T18:48:32.451Z,9.63
2023-03-18T18:51:00.501Z,9.56
2023-03-18T18:53:36.572Z,9.44
2023-03-18T18:56:23.693Z,9.35
2023-03-18T18:58:51.865Z,9.27
2023-03-18T19:01:19.905Z,9.14
2023-03-18T19:03:47.075Z,9.13
2023-03-18T19:06:32.928Z,9.06
2023-03-18T19:09:01.756Z,8.96
2023-03-18T19:11:29.062Z,8.86
2023-03-18T19:14:17.530Z,8.80
2023-03-18T19:16:44.576Z,8.70
2023-03-18T19:19:15.171Z,8.65
2023-03-18T19:21:43.117Z,8.58
2023-03-18T19:24:30.592Z,8.51
2023-03-18T19:27:01.534Z,8.38
2023-03-18T19:29:28.932Z,8.33
2023-03-18T19:31:55.633Z,8.28
2023-03-18T19:34:23.529Z,8.27
2023-03-18T19:36:56.025Z,8.21
2023-03-18T19:39:23.002Z,8.14
2023-03-18T19:41:49.563Z,8.12
2023-03-18T19:44:21.757Z,8.05
2023-03-18T19:46:50.009Z,8.01
2023-03-18T19:49:24.803Z,7.83
2023-03-18T19:51:51.764Z,7.69
2023-03-18T19:54:25.571Z,7.64
2023-03-18T19:56:52.805Z,7.61
2023-03-18T19:59:38.180Z,7.60
2023-03-18T20:02:21.126Z,7.58
2023-03-18T20:04:52.612Z,7.62
2023-03-18T20:07:20.667Z,7.52
2023-03-18T20:09:48.064Z,7.38
2023-03-18T20:12:36.356Z,7.21
2023-03-18T20:15:04.651Z,7.15
2023-03-18T20:17:50.628Z,7.06
2023-03-18T20:20:23.424Z,7.13
2023-03-18T20:23:01.133Z,7.15
2023-03-18T20:25:36.870Z,7.10
2023-03-18T20:28:04.779Z,7.15
2023-03-18T20:30:37.812Z,7.18
2023-03-18T20:33:04.772Z,7.15
2023-03-18T20:35:34.768Z,7.12
2023-03-18T20:38:26.568Z,7.12
2023-03-18T20:40:53.429Z,7.11
2023-03-18T20:43:22.782Z,7.16
2023-03-18T20:45:51.853Z,7.20
2023-03-18T20:48:19.308Z,7.09
2023-03-18T20:50:46.835Z,7.06
2023-03-18T20:53:22.621Z,7.12
2023-03-18T20:55:50.106Z,7.15
2023-03-18T20:58:19.494Z,7.07
2023-03-18T21:00:46.689Z,7.08
2023-03-18T21:03:29.433Z,7.07
2023-03-18T21:05:57.959Z,7.01
2023-03-18T21:08:26.306Z,6.92
2023-03-18T21:10:53.751Z,6.93
2023-03-18T21:13:36.303Z,6.99
2023-03-18T21:16:04.275Z,7.11
2023-03-18T21:18:30.802Z,7.17
2023-03-18T21:20:59.204Z,7.15
2023-03-18T21:23:31.913Z,7.07
2023-03-18T21:25:58.792Z,7.01
2023-03-18T21:28:28.385Z,6.95
2023-03-18T21:30:58.322Z,6.94
2023-03-18T21:33:28.117Z,6.94
2023-03-18T21:35:57.255Z,6.92
2023-03-18T21:38:25.808Z,6.97
2023-03-18T21:40:55.588Z,6.92
2023-03-18T21:43:33.605Z,6.90
2023-03-18T21:46:01.724Z,6.83
2023-03-18T21:48:29.228Z,6.81
2023-03-18T21:50:55.990Z,6.80
2023-03-18T21:53:24.368Z,6.72
2023-03-18T21:55:52.235Z,6.68
2023-03-18T21:58:21.706Z,6.62
2023-03-18T22:00:57.217Z,6.48
2023-03-18T22:03:27.202Z,6.40
2023-03-18T22:05:54.616Z,6.28
2023-03-18T22:08:22.405Z,6.18
2023-03-18T22:10:50.620Z,6.08
2023-03-18T22:13:20.021Z,6.01
2023-03-18T22:15:51.789Z,5.97
2023-03-18T22:18:19.113Z,6.01
2023-03-18T22:20:47.774Z,6.02
2023-03-18T22:23:23.347Z,6.04
2023-03-18T22:25:53.055Z,6.08
2023-03-18T22:28:20.038Z,6.13
2023-03-18T22:30:52.135Z,6.14
2023-03-18T22:33:26.575Z,6.07
2023-03-18T22:35:54.207Z,6.03
2023-03-18T22:38:22.843Z,5.93
2023-03-18T22:40:52.794Z,5.83
2023-03-18T22:43:33.766Z,5.81
2023-03-18T22:46:03.342Z,5.81
2023-03-18T22:48:29.880Z,5.82
2023-03-18T22:50:59.287Z,5.65
2023-03-18T22:53:27.550Z,5.51
2023-03-18T22:55:55.573Z,5.17
2023-03-18T22:58:28.448Z,4.81
2023-03-18T23:00:56.031Z,4.53
2023-03-18T23:03:28.782Z,4.46
2023-03-18T23:05:57.118Z,4.39
2023-03-18T23:08:24.325Z,4.24
2023-03-18T23:10:53.184Z,4.07
2023-03-18T23:13:29.315Z,3.92
2023-03-18T23:15:56.495Z,3.79
2023-03-18T23:18:23.785Z,3.68
2023-03-18T23:20:51.829Z,3.61
2023-03-18T23:23:18.527Z,3.54
2023-03-18T23:25:46.156Z,3.50
2023-03-18T23:28:13.463Z,3.46
2023-03-18T23:30:42.484Z,3.41
2023-03-18T23:33:09.954Z,3.35
2023-03-18T23:35:37.582Z,3.36
2023-03-18T23:38:05.866Z,3.33
2023-03-18T23:40:32.867Z,3.29
2023-03-18T23:42:59.417Z,3.16
2023-03-18T23:45:27.158Z,3.04
2023-03-18T23:47:54.998Z,3.07
2023-03-18T23:50:22.142Z,3.06
2023-03-18T23:52:49.055Z,3.09
2023-03-18T23:55:33.036Z,3.08
2023-03-18T23:57:59.895Z,3.13
